createdAt,value
2019-03-05T00:00:27.170Z,3.40
2019-03-05T00:02:57.725Z,3.70
2019-03-05T00:05:29.177Z,3.47
2019-03-05T00:07:59.017Z,4.27
2019-03-05T00:10:29.402Z,4.60
2019-03-05T00:12:59.410Z,4.60
2019-03-05T00:15:29.484Z,4.57
2019-03-05T00:18:00.565Z,4.30
2019-03-05T00:20:30.843Z,4.50
2019-03-05T00:23:00.572Z,4.93
2019-03-05T00:25:30.445Z,4.97
2019-03-05T00:28:25.696Z,4.70
2019-03-05T00:31:00.810Z,5.30
2019-03-05T00:33:41.043Z,5.17
2019-03-05T00:36:21.369Z,4.50
2019-03-05T00:38:58.809Z,4.53
2019-03-05T00:41:32.101Z,5.43
2019-03-05T00:44:33.509Z,4.30
2019-03-05T00:47:31.977Z,4.07
2019-03-05T00:50:14.497Z,4.27
2019-03-05T00:53:13.019Z,4.00
2019-03-05T00:56:03.741Z,4.57
2019-03-05T00:58:36.349Z,4.23
2019-03-05T01:01:31.933Z,3.97
2019-03-05T01:04:14.692Z,4.07
2019-03-05T01:06:45.242Z,4.53
2019-03-05T01:09:19.449Z,4.53
2019-03-05T01:11:49.739Z,4.10
2019-03-05T01:14:20.173Z,4.50
2019-03-05T01:16:51.190Z,4.50
2019-03-05T01:19:22.355Z,4.37
2019-03-05T01:21:53.310Z,4.60
2019-03-05T01:24:23.942Z,5.00
2019-03-05T01:26:53.641Z,5.20
2019-03-05T01:29:23.956Z,4.50
2019-03-05T01:32:21.658Z,4.70
2019-03-05T01:35:02.653Z,5.17
2019-03-05T01:37:32.567Z,5.13
2019-03-05T01:40:17.825Z,5.60
2019-03-05T01:42:47.436Z,4.83
2019-03-05T01:45:17.309Z,5.03
2019-03-05T01:47:48.284Z,5.53
2019-03-05T01:50:19.028Z,5.27
2019-03-05T01:52:48.896Z,5.27
2019-03-05T01:55:18.633Z,5.13
2019-03-05T01:57:49.497Z,4.87
2019-03-05T02:00:20.121Z,4.70
2019-03-05T02:02:51.003Z,4.90
2019-03-05T02:05:22.433Z,5.10
2019-03-05T02:07:54.776Z,4.37
2019-03-05T02:10:25.032Z,4.63
2019-03-05T02:12:55.814Z,4.00
2019-03-05T02:15:25.581Z,4.27
2019-03-05T02:17:55.548Z,3.50
2019-03-05T02:20:26.110Z,4.00
2019-03-05T02:23:03.609Z,3.87
2019-03-05T02:25:41.117Z,3.30
2019-03-05T02:28:42.144Z,3.83
2019-03-05T02:31:36.481Z,4.07
2019-03-05T02:34:12.473Z,3.83
2019-03-05T02:36:59.636Z,3.70
2019-03-05T02:39:34.833Z,3.80
2019-03-05T02:42:11.343Z,3.83
2019-03-05T02:45:03.044Z,3.93
2019-03-05T02:47:55.098Z,3.50
2019-03-05T02:50:52.694Z,3.50
2019-03-05T02:53:56.682Z,3.60
2019-03-05T02:56:35.989Z,4.00
2019-03-05T02:59:04.942Z,3.70
2019-03-05T03:01:53.668Z,3.53
2019-03-05T03:04:25.305Z,3.00
2019-03-05T03:06:56.000Z,3.10
2019-03-05T03:09:49.309Z,2.73
2019-03-05T03:12:19.841Z,3.27
2019-03-05T03:14:49.855Z,3.33
2019-03-05T03:17:20.441Z,3.80
2019-03-05T03:19:51.383Z,3.67
2019-03-05T03:22:21.267Z,3.97
2019-03-05T03:24:51.706Z,3.90
2019-03-05T03:27:22.145Z,3.53
2019-03-05T03:29:52.581Z,3.17
2019-03-05T03:32:23.174Z,3.63
2019-03-05T03:34:54.556Z,3.10
2019-03-05T03:37:24.745Z,3.20
2019-03-05T03:39:54.738Z,2.87
2019-03-05T03:42:27.230Z,2.53
2019-03-05T03:44:59.098Z,2.80
2019-03-05T03:47:28.995Z,3.00
2019-03-05T03:50:00.030Z,3.10
2019-03-05T03:52:29.823Z,2.80
2019-03-05T03:54:59.762Z,2.70
2019-03-05T03:57:29.993Z,2.97
2019-03-05T03:59:59.301Z,2.77
2019-03-05T04:02:29.727Z,2.70
2019-03-05T04:04:59.791Z,2.60
2019-03-05T04:07:29.719Z,2.50
2019-03-05T04:09:59.402Z,3.00
2019-03-05T04:12:29.409Z,2.33
2019-03-05T04:14:59.773Z,2.80
2019-03-05T04:17:30.094Z,2.93
2019-03-05T04:20:00.422Z,2.90
2019-03-05T04:22:31.386Z,2.07
2019-03-05T04:25:02.903Z,3.00
2019-03-05T04:27:33.713Z,2.93
2019-03-05T04:30:03.941Z,2.33
2019-03-05T04:32:33.758Z,3.07
2019-03-05T04:35:04.046Z,2.40
2019-03-05T04:37:34.149Z,2.47
2019-03-05T04:40:07.877Z,2.30
2019-03-05T04:42:38.494Z,2.47
2019-03-05T04:45:26.017Z,2.50
2019-03-05T04:47:56.029Z,2.70
2019-03-05T04:50:34.627Z,2.60
2019-03-05T04:53:04.757Z,2.30
2019-03-05T04:55:34.585Z,2.93
2019-03-05T04:58:04.552Z,2.30
2019-03-05T05:00:34.229Z,2.50
2019-03-05T05:03:04.690Z,2.30
2019-03-05T05:05:34.646Z,2.40
2019-03-05T05:08:05.205Z,2.30
2019-03-05T05:10:37.597Z,2.37
2019-03-05T05:13:07.910Z,2.13
2019-03-05T05:15:37.870Z,2.00
2019-03-05T05:18:08.106Z,1.57
2019-03-05T05:20:38.173Z,2.00
2019-03-05T05:23:08.661Z,1.63
2019-03-05T05:25:37.912Z,1.83
2019-03-05T05:28:08.348Z,2.00
2019-03-05T05:30:39.970Z,2.20
2019-03-05T05:33:09.889Z,1.73
2019-03-05T05:35:40.274Z,1.77
2019-03-05T05:38:12.097Z,1.80
2019-03-05T05:40:45.847Z,2.03
2019-03-05T05:43:26.049Z,1.70
2019-03-05T05:45:58.758Z,1.30
2019-03-05T05:48:30.045Z,1.60
2019-03-05T05:51:02.489Z,1.67
2019-03-05T05:53:32.921Z,1.57
2019-03-05T05:56:02.740Z,1.30
2019-03-05T05:58:33.468Z,1.63
2019-03-05T06:01:08.737Z,1.20
2019-03-05T06:03:38.690Z,1.50
2019-03-05T06:06:09.025Z,1.60
2019-03-05T06:08:39.554Z,2.20
2019-03-05T06:11:09.530Z,1.77
2019-03-05T06:13:39.519Z,1.87
2019-03-05T06:16:10.459Z,1.73
2019-03-05T06:18:40.937Z,1.57
2019-03-05T06:21:11.105Z,1.63
2019-03-05T06:23:41.459Z,1.40
2019-03-05T06:26:11.711Z,1.53
2019-03-05T06:28:41.693Z,1.77
2019-03-05T06:31:11.080Z,1.40
2019-03-05T06:33:41.942Z,1.83
2019-03-05T06:36:11.953Z,1.70
2019-03-05T06:38:43.221Z,1.83
2019-03-05T06:41:15.252Z,1.90
2019-03-05T06:43:46.009Z,1.70
2019-03-05T06:46:15.733Z,1.57
2019-03-05T06:48:45.853Z,1.80
2019-03-05T06:51:17.017Z,1.47
2019-03-05T06:53:48.025Z,1.30
2019-03-05T06:56:17.761Z,1.70
2019-03-05T06:58:47.269Z,1.50
2019-03-05T07:01:17.405Z,1.67
2019-03-05T07:03:47.349Z,1.53
2019-03-05T07:06:35.333Z,2.10
2019-03-05T07:09:08.700Z,1.40
2019-03-05T07:11:57.373Z,1.53
2019-03-05T07:14:33.318Z,1.57
2019-03-05T07:17:19.317Z,1.77
2019-03-05T07:20:09.446Z,1.53
2019-03-05T07:23:01.012Z,1.43
2019-03-05T07:25:31.488Z,1.63
2019-03-05T07:28:01.937Z,1.60
2019-03-05T07:30:31.225Z,1.97
2019-03-05T07:33:01.127Z,1.30
2019-03-05T07:35:33.117Z,1.80
2019-03-05T07:38:03.013Z,1.70
2019-03-05T07:40:32.884Z,1.70
2019-03-05T07:43:04.953Z,1.90
2019-03-05T07:45:35.210Z,1.50
2019-03-05T07:48:07.513Z,1.37
2019-03-05T07:50:38.425Z,2.10
2019-03-05T07:53:08.321Z,1.67
2019-03-05T07:55:38.279Z,1.83
2019-03-05T07:58:08.128Z,1.77
2019-03-05T08:00:40.761Z,1.60
2019-03-05T08:03:12.033Z,1.67
2019-03-05T08:05:42.661Z,1.67
2019-03-05T08:08:29.985Z,1.67
2019-03-05T08:10:59.981Z,2.33
2019-03-05T08:13:43.797Z,1.20
2019-03-05T08:16:31.990Z,1.40
2019-03-05T08:19:03.490Z,1.63
2019-03-05T08:21:33.255Z,1.40
2019-03-05T08:24:03.745Z,1.20
2019-03-05T08:26:34.516Z,1.20
2019-03-05T08:29:04.385Z,1.37
2019-03-05T08:31:34.344Z,1.37
2019-03-05T08:34:04.788Z,1.20
2019-03-05T08:36:35.242Z,1.17
2019-03-05T08:39:07.646Z,1.60
2019-03-05T08:41:38.021Z,1.30
2019-03-05T08:44:08.498Z,1.00
2019-03-05T08:46:38.527Z,1.10
2019-03-05T08:49:08.984Z,1.07
2019-03-05T08:51:38.976Z,1.00
2019-03-05T08:54:11.255Z,2.10
2019-03-05T08:56:41.721Z,1.43
2019-03-05T08:59:11.496Z,1.10
2019-03-05T09:01:43.109Z,1.10
2019-03-05T09:04:13.525Z,0.93
2019-03-05T09:06:43.902Z,1.47
2019-03-05T09:09:15.482Z,1.33
2019-03-05T09:11:45.893Z,1.20
2019-03-05T09:14:18.783Z,0.97
2019-03-05T09:16:48.435Z,1.20
2019-03-05T09:19:18.410Z,1.10
2019-03-05T09:21:49.335Z,0.80
2019-03-05T09:24:19.903Z,0.90
2019-03-05T09:26:51.614Z,1.20
2019-03-05T09:29:21.153Z,1.53
2019-03-05T09:31:51.538Z,1.57
2019-03-05T09:34:21.877Z,1.10
2019-03-05T09:36:51.858Z,0.97
2019-03-05T09:39:22.491Z,1.10
2019-03-05T09:41:52.670Z,1.07
2019-03-05T09:44:24.453Z,0.80
2019-03-05T09:46:54.105Z,1.87
2019-03-05T09:49:23.754Z,1.00
2019-03-05T09:51:54.074Z,1.13
2019-03-05T09:54:25.144Z,1.20
2019-03-05T09:56:57.553Z,0.97
2019-03-05T09:59:27.313Z,0.80
2019-03-05T10:01:57.289Z,1.20
2019-03-05T10:04:28.629Z,1.20
2019-03-05T10:06:58.529Z,1.00
2019-03-05T10:09:28.962Z,1.63
2019-03-05T10:11:58.925Z,0.90
2019-03-05T10:14:28.879Z,0.80
2019-03-05T10:16:59.429Z,0.90
2019-03-05T10:19:29.050Z,0.90
2019-03-05T10:21:58.978Z,0.97
2019-03-05T10:24:29.537Z,1.00
2019-03-05T10:26:59.752Z,0.90
2019-03-05T10:29:30.112Z,1.20
2019-03-05T10:32:00.437Z,1.00
2019-03-05T10:34:30.207Z,1.47
2019-03-05T10:37:00.393Z,1.03
2019-03-05T10:39:31.363Z,0.90
2019-03-05T10:42:01.914Z,0.73
2019-03-05T10:44:33.145Z,1.00
2019-03-05T10:47:03.609Z,1.43
2019-03-05T10:49:33.295Z,1.20
2019-03-05T10:52:03.309Z,1.40
2019-03-05T10:54:33.752Z,0.83
2019-03-05T10:57:04.765Z,0.97
2019-03-05T10:59:34.746Z,1.00
2019-03-05T11:02:04.902Z,2.27
2019-03-05T11:04:45.409Z,1.00
2019-03-05T11:07:08.140Z,1.70
2019-03-05T11:09:38.257Z,1.00
2019-03-05T11:12:09.172Z,1.57
2019-03-05T11:14:39.415Z,1.10
2019-03-05T11:17:09.815Z,1.10
2019-03-05T11:19:43.924Z,1.10
2019-03-05T11:22:13.805Z,0.80
2019-03-05T11:24:43.445Z,2.87
2019-03-05T11:27:16.002Z,1.20
2019-03-05T11:29:46.837Z,1.00
2019-03-05T11:32:17.205Z,1.10
2019-03-05T11:34:47.149Z,1.10
2019-03-05T11:37:17.677Z,0.90
2019-03-05T11:39:48.129Z,1.37
2019-03-05T11:42:19.513Z,3.10
2019-03-05T11:45:03.766Z,1.00
2019-03-05T11:47:23.121Z,0.80
2019-03-05T11:49:52.957Z,1.10
2019-03-05T11:52:22.912Z,0.90
2019-03-05T11:54:52.802Z,0.90
2019-03-05T11:57:22.477Z,1.10
2019-03-05T11:59:52.465Z,1.30
2019-03-05T12:02:22.385Z,1.10
2019-03-05T12:04:52.597Z,1.10
2019-03-05T12:07:25.804Z,1.07
2019-03-05T12:09:56.217Z,1.00
2019-03-05T12:12:26.649Z,1.00
2019-03-05T12:14:57.117Z,0.80
2019-03-05T12:17:31.821Z,0.80
2019-03-05T12:20:01.929Z,1.40
2019-03-05T12:22:32.480Z,1.10
2019-03-05T12:25:03.608Z,1.00
2019-03-05T12:27:35.820Z,0.97
2019-03-05T12:30:05.335Z,0.77
2019-03-05T12:32:35.838Z,1.23
2019-03-05T12:35:06.237Z,1.27
2019-03-05T12:37:41.433Z,0.80
2019-03-05T12:40:12.439Z,1.50
2019-03-05T12:42:42.902Z,1.00
2019-03-05T12:45:13.437Z,1.20
2019-03-05T12:47:44.060Z,0.87
2019-03-05T12:50:16.068Z,0.97
2019-03-05T12:52:46.237Z,1.30
2019-03-05T12:55:18.335Z,0.97
2019-03-05T12:57:48.350Z,1.07
2019-03-05T13:00:19.637Z,1.00
2019-03-05T13:02:50.034Z,1.40
2019-03-05T13:05:20.570Z,1.17
2019-03-05T13:07:52.574Z,1.50
2019-03-05T13:10:22.227Z,1.13
2019-03-05T13:12:52.843Z,1.20
2019-03-05T13:15:23.721Z,1.10
2019-03-05T13:17:54.036Z,1.37
2019-03-05T13:20:26.524Z,1.10
2019-03-05T13:22:58.100Z,1.20
2019-03-05T13:25:29.938Z,1.80
2019-03-05T13:28:02.270Z,0.80
2019-03-05T13:30:32.275Z,0.80
2019-03-05T13:33:02.291Z,1.10
2019-03-05T13:35:32.349Z,0.80
2019-03-05T13:38:03.398Z,1.37
2019-03-05T13:40:38.261Z,1.43
2019-03-05T13:43:07.935Z,1.30
2019-03-05T13:45:43.806Z,1.30
2019-03-05T13:48:14.861Z,1.20
2019-03-05T13:51:06.745Z,1.67
2019-03-05T13:53:45.341Z,1.43
2019-03-05T13:56:33.329Z,0.90
2019-03-05T13:59:20.851Z,1.63
2019-03-05T14:01:51.634Z,1.10
2019-03-05T14:04:30.501Z,1.10
2019-03-05T14:07:18.007Z,1.10
2019-03-05T14:09:47.239Z,1.07
2019-03-05T14:12:17.497Z,0.83
2019-03-05T14:14:49.548Z,1.23
2019-03-05T14:17:30.709Z,1.30
2019-03-05T14:20:00.746Z,0.90
2019-03-05T14:22:30.672Z,0.97
2019-03-05T14:25:02.937Z,0.97
2019-03-05T14:27:36.001Z,1.13
2019-03-05T14:30:07.047Z,1.83
2019-03-05T14:32:37.553Z,1.10
2019-03-05T14:35:11.762Z,1.07
2019-03-05T14:37:44.026Z,1.37
2019-03-05T14:40:24.013Z,2.67
2019-03-05T14:42:48.088Z,1.57
2019-03-05T14:45:18.862Z,2.73
2019-03-05T14:47:48.683Z,1.73
2019-03-05T14:50:18.632Z,2.60
2019-03-05T14:52:48.296Z,0.80
2019-03-05T14:55:18.768Z,1.20
2019-03-05T14:57:49.855Z,1.17
2019-03-05T15:00:20.142Z,1.27
2019-03-05T15:02:50.540Z,0.90
2019-03-05T15:05:21.292Z,1.00
2019-03-05T15:07:51.157Z,1.10
2019-03-05T15:10:20.742Z,1.90
2019-03-05T15:12:51.716Z,1.47
2019-03-05T15:15:23.142Z,1.97
2019-03-05T15:17:53.539Z,1.10
2019-03-05T15:20:24.079Z,1.40
2019-03-05T15:22:54.225Z,1.90
2019-03-05T15:25:24.670Z,1.53
2019-03-05T15:27:55.615Z,0.83
2019-03-05T15:30:28.636Z,1.30
2019-03-05T15:32:57.651Z,1.10
2019-03-05T15:35:27.534Z,0.63
2019-03-05T15:37:57.281Z,1.30
2019-03-05T15:40:27.412Z,1.10
2019-03-05T15:42:57.224Z,1.10
2019-03-05T15:45:26.922Z,1.50
2019-03-05T15:47:57.166Z,1.87
2019-03-05T15:50:27.583Z,1.10
2019-03-05T15:52:57.377Z,1.10
2019-03-05T15:55:27.150Z,1.60
2019-03-05T15:57:58.086Z,1.43
2019-03-05T16:00:32.885Z,1.23
2019-03-05T16:03:03.253Z,0.77
2019-03-05T16:05:33.680Z,0.77
2019-03-05T16:08:04.070Z,1.00
2019-03-05T16:10:33.922Z,1.37
2019-03-05T16:13:05.210Z,1.10
2019-03-05T16:15:35.771Z,1.07
2019-03-05T16:18:06.805Z,1.27
2019-03-05T16:20:39.182Z,1.13
2019-03-05T16:23:09.081Z,0.90
2019-03-05T16:25:41.563Z,0.93
2019-03-05T16:28:12.729Z,1.00
2019-03-05T16:31:07.737Z,1.00
2019-03-05T16:33:49.193Z,0.80
2019-03-05T16:36:37.807Z,1.10
2019-03-05T16:39:33.275Z,1.33
2019-03-05T16:42:41.915Z,1.03
2019-03-05T16:45:33.477Z,1.40
2019-03-05T16:48:25.013Z,0.83
2019-03-05T16:51:05.853Z,0.90
2019-03-05T16:53:53.405Z,1.17
2019-03-05T16:56:47.421Z,1.23
2019-03-05T16:59:45.136Z,0.80
2019-03-05T17:02:23.804Z,1.00
2019-03-05T17:05:11.044Z,0.90
2019-03-05T17:08:12.942Z,0.93
2019-03-05T17:11:01.779Z,0.70
2019-03-05T17:13:31.744Z,0.70
2019-03-05T17:16:02.110Z,0.90
2019-03-05T17:18:33.624Z,1.50
2019-03-05T17:21:03.490Z,0.90
2019-03-05T17:23:33.489Z,0.80
2019-03-05T17:26:05.523Z,0.90
2019-03-05T17:28:35.677Z,0.90
2019-03-05T17:31:05.754Z,1.30
2019-03-05T17:33:36.321Z,1.20
2019-03-05T17:36:06.598Z,1.10
2019-03-05T17:38:36.639Z,0.80
2019-03-05T17:41:06.792Z,0.90
2019-03-05T17:43:36.795Z,0.80
2019-03-05T17:46:07.080Z,0.70
2019-03-05T17:48:37.529Z,1.07
2019-03-05T17:51:07.874Z,1.10
2019-03-05T17:53:37.685Z,1.07
2019-03-05T17:56:07.450Z,1.20
2019-03-05T17:58:38.393Z,1.00
2019-03-05T18:01:09.684Z,1.03
2019-03-05T18:03:39.826Z,1.00
2019-03-05T18:06:10.265Z,1.23
2019-03-05T18:08:40.897Z,0.80
2019-03-05T18:11:10.893Z,1.23
2019-03-05T18:13:41.036Z,0.80
2019-03-05T18:16:11.012Z,1.10
2019-03-05T18:18:40.961Z,1.00
2019-03-05T18:21:11.962Z,1.00
2019-03-05T18:23:41.801Z,0.70
2019-03-05T18:26:11.941Z,0.93
2019-03-05T18:28:41.676Z,1.03
2019-03-05T18:31:12.475Z,0.80
2019-03-05T18:33:43.065Z,0.90
2019-03-05T18:36:14.021Z,1.10
2019-03-05T18:38:43.926Z,1.30
2019-03-05T18:41:13.625Z,0.80
2019-03-05T18:43:45.568Z,0.93
2019-03-05T18:46:16.045Z,0.90
2019-03-05T18:48:47.609Z,0.97
2019-03-05T18:51:19.175Z,1.17
2019-03-05T18:53:49.529Z,1.10
2019-03-05T18:56:20.134Z,0.90
2019-03-05T18:58:50.085Z,0.90
2019-03-05T19:01:20.505Z,1.10
2019-03-05T19:03:50.441Z,1.13
2019-03-05T19:06:20.850Z,1.20
2019-03-05T19:08:50.588Z,1.00
2019-03-05T19:11:20.914Z,1.03
2019-03-05T19:13:51.931Z,1.00
2019-03-05T19:16:21.525Z,1.00
2019-03-05T19:18:51.252Z,0.77
2019-03-05T19:21:21.243Z,1.00
2019-03-05T19:23:51.121Z,0.90
2019-03-05T19:26:21.103Z,1.00
2019-03-05T19:28:51.598Z,1.27
2019-03-05T19:31:21.425Z,0.93
2019-03-05T19:33:51.613Z,0.90
2019-03-05T19:36:21.344Z,0.97
2019-03-05T19:38:51.099Z,0.83
2019-03-05T19:41:21.314Z,1.10
2019-03-05T19:43:52.949Z,1.10
2019-03-05T19:46:22.705Z,1.00
2019-03-05T19:48:52.993Z,0.97
2019-03-05T19:51:23.026Z,1.00
2019-03-05T19:53:55.893Z,0.70
2019-03-05T19:56:26.805Z,1.20
2019-03-05T19:58:56.857Z,1.03
2019-03-05T20:01:34.091Z,1.37
2019-03-05T20:04:11.621Z,1.07
2019-03-05T20:06:37.574Z,0.93
2019-03-05T20:09:11.946Z,1.03
2019-03-05T20:11:41.913Z,1.10
2019-03-05T20:14:12.703Z,1.00
2019-03-05T20:16:42.440Z,1.10
2019-03-05T20:19:12.517Z,1.43
2019-03-05T20:21:43.552Z,1.53
2019-03-05T20:24:13.522Z,0.80
2019-03-05T20:26:43.547Z,1.10
2019-03-05T20:29:13.361Z,1.23
2019-03-05T20:31:43.077Z,1.20
2019-03-05T20:34:13.677Z,1.33
2019-03-05T20:36:43.424Z,1.20
2019-03-05T20:39:15.241Z,1.17
2019-03-05T20:41:45.487Z,0.90
2019-03-05T20:44:16.461Z,1.40
2019-03-05T20:46:46.905Z,1.30
2019-03-05T20:49:17.773Z,1.70
2019-03-05T20:51:47.789Z,1.60
2019-03-05T20:54:17.657Z,1.40
2019-03-05T20:56:47.541Z,1.50
2019-03-05T20:59:18.907Z,1.30
2019-03-05T21:01:49.498Z,1.70
2019-03-05T21:04:19.941Z,1.33
2019-03-05T21:06:50.413Z,1.50
2019-03-05T21:09:21.121Z,1.60
2019-03-05T21:11:51.065Z,1.33
2019-03-05T21:14:22.169Z,1.80
2019-03-05T21:16:51.801Z,1.40
2019-03-05T21:19:22.641Z,1.90
2019-03-05T21:21:52.999Z,1.40
2019-03-05T21:24:24.189Z,1.40
2019-03-05T21:26:53.999Z,1.83
2019-03-05T21:29:24.985Z,1.87
2019-03-05T21:31:55.491Z,1.70
2019-03-05T21:34:26.104Z,2.22
2019-03-05T21:36:56.365Z,1.53
2019-03-05T21:39:26.156Z,1.60
2019-03-05T21:41:56.493Z,1.50
2019-03-05T21:44:26.384Z,2.00
2019-03-05T21:46:55.991Z,1.83
2019-03-05T21:49:25.737Z,1.87
2019-03-05T21:51:55.508Z,1.57
2019-03-05T21:54:25.461Z,2.27
2019-03-05T21:56:56.868Z,1.40
2019-03-05T21:59:27.465Z,2.10
2019-03-05T22:01:57.644Z,2.17
2019-03-05T22:04:27.564Z,1.70
2019-03-05T22:06:57.497Z,1.67
2019-03-05T22:09:28.249Z,1.13
2019-03-05T22:11:59.877Z,1.20
2019-03-05T22:14:30.329Z,1.53
2019-03-05T22:17:00.117Z,1.13
2019-03-05T22:19:30.449Z,1.37
2019-03-05T22:22:00.325Z,1.43
2019-03-05T22:24:30.437Z,1.23
2019-03-05T22:27:00.206Z,1.60
2019-03-05T22:29:31.485Z,1.70
2019-03-05T22:32:01.379Z,1.63
2019-03-05T22:34:31.290Z,1.27
2019-03-05T22:37:03.533Z,1.40
2019-03-05T22:39:33.232Z,1.40
2019-03-05T22:42:03.617Z,1.40
2019-03-05T22:44:33.920Z,1.80
2019-03-05T22:47:03.958Z,1.37
2019-03-05T22:49:34.340Z,1.77
2019-03-05T22:52:04.270Z,1.97
2019-03-05T22:54:33.985Z,2.40
2019-03-05T22:57:04.473Z,1.90
2019-03-05T22:59:34.783Z,2.23
2019-03-05T23:02:04.704Z,2.17
2019-03-05T23:04:35.865Z,1.80
2019-03-05T23:07:06.484Z,2.00
2019-03-05T23:09:37.310Z,2.33
2019-03-05T23:12:07.709Z,2.00
2019-03-05T23:14:38.068Z,2.23
2019-03-05T23:17:08.601Z,2.83
2019-03-05T23:19:38.491Z,2.27
2019-03-05T23:22:08.854Z,2.30
2019-03-05T23:24:39.183Z,2.40
2019-03-05T23:27:09.131Z,2.20
2019-03-05T23:29:46.573Z,2.43
2019-03-05T23:32:17.101Z,1.77
2019-03-05T23:34:47.520Z,2.23
2019-03-05T23:37:18.490Z,2.07
2019-03-05T23:39:48.925Z,1.83
2019-03-05T23:42:18.845Z,1.43
2019-03-05T23:44:49.749Z,1.83
2019-03-05T23:47:20.105Z,2.07
2019-03-05T23:49:50.802Z,2.03
2019-03-05T23:52:23.234Z,2.20
2019-03-05T23:54:53.054Z,2.13
2019-03-05T23:57:23.378Z,1.90
2019-03-05T23:59:53.339Z,1.80
